sensor_id;sensor_type;location;lat;lon;timestamp;pressure;altitude;pressure_sealevel;temperature;humidity
4085;BME280;2057;50.858;6.572;2023-06-14T00:01:34;100085.13;;;20.10;56.38
4085;BME280;2057;50.858;6.572;2023-06-14T00:04:00;100088.41;;;19.78;57.66
4085;BME280;2057;50.858;6.572;2023-06-14T00:06:28;100082.59;;;20.27;56.35
4085;BME280;2057;50.858;6.572;2023-06-14T00:08:53;100082.63;;;20.47;55.84
4085;BME280;2057;50.858;6.572;2023-06-14T00:11:19;100084.34;;;20.38;56.83
4085;BME280;2057;50.858;6.572;2023-06-14T00:13:44;100078.28;;;20.33;57.05
4085;BME280;2057;50.858;6.572;2023-06-14T00:16:10;100080.91;;;20.36;57.01
4085;BME280;2057;50.858;6.572;2023-06-14T00:18:36;100085.13;;;20.16;57.89
4085;BME280;2057;50.858;6.572;2023-06-14T00:21:02;100091.78;;;19.66;59.24
4085;BME280;2057;50.858;6.572;2023-06-14T00:23:27;100086.41;;;19.30;60.36
4085;BME280;2057;50.858;6.572;2023-06-14T00:25:52;100091.75;;;19.61;59.93
4085;BME280;2057;50.858;6.572;2023-06-14T00:28:18;100086.47;;;19.36;61.55
4085;BME280;2057;50.858;6.572;2023-06-14T00:30:44;100096.75;;;19.32;61.61
4085;BME280;2057;50.858;6.572;2023-06-14T00:33:11;100094.06;;;19.19;62.00
4085;BME280;2057;50.858;6.572;2023-06-14T00:35:37;100092.00;;;18.78;64.04
4085;BME280;2057;50.858;6.572;2023-06-14T00:38:02;100101.19;;;18.53;65.27
4085;BME280;2057;50.858;6.572;2023-06-14T00:40:27;100092.19;;;18.96;63.06
4085;BME280;2057;50.858;6.572;2023-06-14T00:42:53;100091.50;;;19.21;62.19
4085;BME280;2057;50.858;6.572;2023-06-14T00:45:18;100098.34;;;19.19;62.15
4085;BME280;2057;50.858;6.572;2023-06-14T00:47:45;100099.81;;;18.90;63.45
4085;BME280;2057;50.858;6.572;2023-06-14T00:50:11;100097.09;;;18.73;64.38
4085;BME280;2057;50.858;6.572;2023-06-14T00:52:39;100099.84;;;18.92;63.67
4085;BME280;2057;50.858;6.572;2023-06-14T00:55:05;100104.94;;;18.89;64.07
4085;BME280;2057;50.858;6.572;2023-06-14T00:57:31;100101.75;;;19.11;63.54
4085;BME280;2057;50.858;6.572;2023-06-14T00:59:56;100096.34;;;18.87;64.12
4085;BME280;2057;50.858;6.572;2023-06-14T01:02:22;100101.97;;;18.44;66.41
4085;BME280;2057;50.858;6.572;2023-06-14T01:04:49;100109.72;;;18.48;65.77
4085;BME280;2057;50.858;6.572;2023-06-14T01:13:15;100110.09;;;18.86;64.76
4085;BME280;2057;50.858;6.572;2023-06-14T01:15:45;100104.94;;;18.89;64.21
4085;BME280;2057;50.858;6.572;2023-06-14T01:18:12;100113.47;;;18.81;64.95
4085;BME280;2057;50.858;6.572;2023-06-14T01:20:43;100111.19;;;18.28;67.47
4085;BME280;2057;50.858;6.572;2023-06-14T01:23:10;100117.56;;;18.64;65.51
4085;BME280;2057;50.858;6.572;2023-06-14T01:25:37;100120.34;;;18.83;63.72
4085;BME280;2057;50.858;6.572;2023-06-14T01:28:05;100122.84;;;18.76;64.51
4085;BME280;2057;50.858;6.572;2023-06-14T01:30:42;100120.50;;;19.00;62.02
4085;BME280;2057;50.858;6.572;2023-06-14T01:33:14;100120.44;;;18.93;61.89
4085;BME280;2057;50.858;6.572;2023-06-14T01:35:49;100125.50;;;18.86;62.55
4085;BME280;2057;50.858;6.572;2023-06-14T01:38:17;100127.88;;;18.65;63.45
4085;BME280;2057;50.858;6.572;2023-06-14T01:40:44;100134.63;;;18.54;64.28
4085;BME280;2057;50.858;6.572;2023-06-14T01:43:13;100132.16;;;18.65;64.22
4085;BME280;2057;50.858;6.572;2023-06-14T01:45:40;100127.22;;;18.87;62.43
4085;BME280;2057;50.858;6.572;2023-06-14T01:48:07;100129.78;;;18.84;61.72
4085;BME280;2057;50.858;6.572;2023-06-14T01:50:32;100128.03;;;18.83;62.18
4085;BME280;2057;50.858;6.572;2023-06-14T01:52:58;100131.28;;;18.61;63.39
4085;BME280;2057;50.858;6.572;2023-06-14T01:55:23;100130.56;;;18.76;62.23
4085;BME280;2057;50.858;6.572;2023-06-14T01:57:50;100135.72;;;18.76;62.37
4085;BME280;2057;50.858;6.572;2023-06-14T02:00:16;100132.34;;;18.84;60.68
4085;BME280;2057;50.858;6.572;2023-06-14T02:02:43;100123.75;;;18.81;60.85
4085;BME280;2057;50.858;6.572;2023-06-14T02:05:09;100125.38;;;18.75;60.54
4085;BME280;2057;50.858;6.572;2023-06-14T02:07:35;100118.56;;;18.78;59.92
4085;BME280;2057;50.858;6.572;2023-06-14T02:10:00;100119.25;;;18.62;62.10
4085;BME280;2057;50.858;6.572;2023-06-14T02:12:26;100119.31;;;18.66;61.14
4085;BME280;2057;50.858;6.572;2023-06-14T02:14:51;100127.66;;;18.45;62.49
4085;BME280;2057;50.858;6.572;2023-06-14T02:17:16;100126.03;;;18.54;62.13
4085;BME280;2057;50.858;6.572;2023-06-14T02:19:42;100123.50;;;18.57;61.71
4085;BME280;2057;50.858;6.572;2023-06-14T02:22:08;100123.59;;;18.66;61.01
4085;BME280;2057;50.858;6.572;2023-06-14T02:24:33;100125.38;;;18.73;60.58
4085;BME280;2057;50.858;6.572;2023-06-14T02:26:58;100132.06;;;18.57;62.21
4085;BME280;2057;50.858;6.572;2023-06-14T02:29:24;100120.09;;;18.61;62.10
4085;BME280;2057;50.858;6.572;2023-06-14T02:31:49;100135.56;;;18.64;61.34
4085;BME280;2057;50.858;6.572;2023-06-14T02:34:15;100131.19;;;18.54;62.36
4085;BME280;2057;50.858;6.572;2023-06-14T02:36:43;100125.31;;;18.65;61.33
4085;BME280;2057;50.858;6.572;2023-06-14T02:39:09;100131.31;;;18.68;60.71
4085;BME280;2057;50.858;6.572;2023-06-14T02:41:35;100133.00;;;18.62;60.42
4085;BME280;2057;50.858;6.572;2023-06-14T02:44:01;100139.00;;;18.63;61.51
4085;BME280;2057;50.858;6.572;2023-06-14T02:46:26;100139.88;;;18.63;61.32
4085;BME280;2057;50.858;6.572;2023-06-14T02:48:51;100138.88;;;18.50;61.61
4085;BME280;2057;50.858;6.572;2023-06-14T02:51:17;100143.88;;;18.38;63.26
4085;BME280;2057;50.858;6.572;2023-06-14T02:53:42;100139.53;;;18.32;63.78
4085;BME280;2057;50.858;6.572;2023-06-14T02:56:09;100139.00;;;17.92;66.62
4085;BME280;2057;50.858;6.572;2023-06-14T02:58:36;100134.81;;;17.96;65.92
4085;BME280;2057;50.858;6.572;2023-06-14T03:01:01;100141.53;;;17.91;65.73
4085;BME280;2057;50.858;6.572;2023-06-14T03:03:29;100149.84;;;17.71;66.86
4085;BME280;2057;50.858;6.572;2023-06-14T03:05:54;100148.69;;;17.50;67.48
4085;BME280;2057;50.858;6.572;2023-06-14T03:08:20;100156.38;;;17.50;66.71
4085;BME280;2057;50.858;6.572;2023-06-14T03:10:46;100141.88;;;16.99;68.85
4085;BME280;2057;50.858;6.572;2023-06-14T03:13:12;100148.31;;;16.78;70.13
4085;BME280;2057;50.858;6.572;2023-06-14T03:15:38;100152.28;;;17.08;68.72
4085;BME280;2057;50.858;6.572;2023-06-14T03:18:04;100155.94;;;17.22;68.63
4085;BME280;2057;50.858;6.572;2023-06-14T03:20:29;100158.66;;;17.32;68.44
4085;BME280;2057;50.858;6.572;2023-06-14T03:23:00;100159.50;;;17.31;68.43
4085;BME280;2057;50.858;6.572;2023-06-14T03:25:25;100158.81;;;17.41;67.31
4085;BME280;2057;50.858;6.572;2023-06-14T03:27:54;100159.47;;;17.28;68.79
4085;BME280;2057;50.858;6.572;2023-06-14T03:30:20;100162.22;;;17.40;68.40
4085;BME280;2057;50.858;6.572;2023-06-14T03:32:45;100161.59;;;17.56;67.11
4085;BME280;2057;50.858;6.572;2023-06-14T03:35:10;100164.91;;;17.48;68.42
4085;BME280;2057;50.858;6.572;2023-06-14T03:37:42;100169.91;;;17.40;69.00
4085;BME280;2057;50.858;6.572;2023-06-14T03:40:08;100168.94;;;17.32;70.45
4085;BME280;2057;50.858;6.572;2023-06-14T03:42:33;100170.66;;;17.34;69.87
4085;BME280;2057;50.858;6.572;2023-06-14T03:44:59;100176.63;;;17.32;69.86
4085;BME280;2057;50.858;6.572;2023-06-14T03:47:24;100177.38;;;17.24;69.74
4085;BME280;2057;50.858;6.572;2023-06-14T03:49:50;100174.75;;;17.21;71.33
4085;BME280;2057;50.858;6.572;2023-06-14T03:52:15;100170.47;;;17.20;70.67
4085;BME280;2057;50.858;6.572;2023-06-14T03:54:42;100175.69;;;17.25;70.35
4085;BME280;2057;50.858;6.572;2023-06-14T03:57:09;100174.63;;;17.12;71.18
4085;BME280;2057;50.858;6.572;2023-06-14T03:59:35;100183.31;;;17.20;71.26
4085;BME280;2057;50.858;6.572;2023-06-14T04:02:01;100176.44;;;17.19;70.81
4085;BME280;2057;50.858;6.572;2023-06-14T04:04:27;100181.41;;;17.10;70.89
4085;BME280;2057;50.858;6.572;2023-06-14T04:06:55;100189.47;;;16.84;71.77
4085;BME280;2057;50.858;6.572;2023-06-14T04:09:23;100184.19;;;16.75;71.75
4085;BME280;2057;50.858;6.572;2023-06-14T04:11:50;100191.00;;;16.31;74.07
4085;BME280;2057;50.858;6.572;2023-06-14T04:14:15;100192.88;;;15.97;75.35
4085;BME280;2057;50.858;6.572;2023-06-14T04:16:41;100192.84;;;16.37;74.11
4085;BME280;2057;50.858;6.572;2023-06-14T04:19:06;100197.81;;;16.74;71.85
4085;BME280;2057;50.858;6.572;2023-06-14T04:21:31;100197.03;;;16.78;71.76
4085;BME280;2057;50.858;6.572;2023-06-14T04:24:00;100202.16;;;16.78;71.33
4085;BME280;2057;50.858;6.572;2023-06-14T04:26:26;100205.09;;;16.97;70.77
4085;BME280;2057;50.858;6.572;2023-06-14T04:28:55;100203.81;;;17.20;69.60
4085;BME280;2057;50.858;6.572;2023-06-14T04:31:22;100209.16;;;17.33;70.02
4085;BME280;2057;50.858;6.572;2023-06-14T04:33:50;100202.59;;;17.50;70.09
4085;BME280;2057;50.858;6.572;2023-06-14T04:36:18;100205.16;;;17.49;71.21
4085;BME280;2057;50.858;6.572;2023-06-14T04:38:44;100203.50;;;17.54;70.29
4085;BME280;2057;50.858;6.572;2023-06-14T04:41:10;100202.88;;;17.67;69.86
4085;BME280;2057;50.858;6.572;2023-06-14T04:43:37;100208.00;;;17.69;69.49
4085;BME280;2057;50.858;6.572;2023-06-14T04:46:04;100211.47;;;17.71;69.10
4085;BME280;2057;50.858;6.572;2023-06-14T04:48:31;100208.06;;;17.72;70.27
4085;BME280;2057;50.858;6.572;2023-06-14T04:50:56;100211.69;;;17.86;69.92
4085;BME280;2057;50.858;6.572;2023-06-14T04:53:22;100217.06;;;17.99;69.79
4085;BME280;2057;50.858;6.572;2023-06-14T04:55:48;100213.50;;;17.94;70.33
4085;BME280;2057;50.858;6.572;2023-06-14T04:58:14;100212.84;;;18.04;69.55
4085;BME280;2057;50.858;6.572;2023-06-14T05:00:39;100216.22;;;18.01;69.70
4085;BME280;2057;50.858;6.572;2023-06-14T05:03:06;100223.13;;;18.04;69.70
4085;BME280;2057;50.858;6.572;2023-06-14T05:05:31;100230.00;;;18.08;68.60
4085;BME280;2057;50.858;6.572;2023-06-14T05:07:57;100229.94;;;18.03;69.24
4085;BME280;2057;50.858;6.572;2023-06-14T05:10:24;100222.28;;;18.05;68.37
4085;BME280;2057;50.858;6.572;2023-06-14T05:12:49;100229.16;;;18.06;67.15
4085;BME280;2057;50.858;6.572;2023-06-14T05:15:15;100227.53;;;18.14;66.36
4085;BME280;2057;50.858;6.572;2023-06-14T05:17:41;100238.78;;;18.23;66.10
4085;BME280;2057;50.858;6.572;2023-06-14T05:20:07;100242.13;;;18.17;65.53
4085;BME280;2057;50.858;6.572;2023-06-14T05:22:33;100245.78;;;18.33;65.09
4085;BME280;2057;50.858;6.572;2023-06-14T05:24:58;100244.91;;;18.31;65.44
4085;BME280;2057;50.858;6.572;2023-06-14T05:27:24;100240.53;;;18.27;65.84
4085;BME280;2057;50.858;6.572;2023-06-14T05:29:50;100245.63;;;18.22;65.91
4085;BME280;2057;50.858;6.572;2023-06-14T05:32:15;100250.94;;;18.34;65.96
4085;BME280;2057;50.858;6.572;2023-06-14T05:34:41;100254.47;;;18.44;66.11
4085;BME280;2057;50.858;6.572;2023-06-14T05:37:06;100252.69;;;18.37;66.84
4085;BME280;2057;50.858;6.572;2023-06-14T05:39:32;100255.44;;;18.51;66.03
4085;BME280;2057;50.858;6.572;2023-06-14T05:41:57;100253.72;;;18.52;65.79
4085;BME280;2057;50.858;6.572;2023-06-14T05:44:22;100269.38;;;18.70;64.96
4085;BME280;2057;50.858;6.572;2023-06-14T05:46:48;100262.44;;;18.63;65.57
4085;BME280;2057;50.858;6.572;2023-06-14T05:49:13;100270.16;;;18.64;65.73
4085;BME280;2057;50.858;6.572;2023-06-14T05:51:38;100267.69;;;18.71;65.89
4085;BME280;2057;50.858;6.572;2023-06-14T05:54:04;100269.41;;;18.73;66.23
4085;BME280;2057;50.858;6.572;2023-06-14T05:56:29;100272.78;;;18.68;64.37
4085;BME280;2057;50.858;6.572;2023-06-14T05:58:55;100275.34;;;18.69;64.40
4085;BME280;2057;50.858;6.572;2023-06-14T06:01:20;100272.88;;;18.78;63.72
4085;BME280;2057;50.858;6.572;2023-06-14T06:03:45;100279.91;;;18.92;63.71
4085;BME280;2057;50.858;6.572;2023-06-14T06:06:12;100279.00;;;18.87;63.23
4085;BME280;2057;50.858;6.572;2023-06-14T06:08:37;100281.69;;;18.93;64.12
4085;BME280;2057;50.858;6.572;2023-06-14T06:11:03;100279.91;;;18.92;63.15
4085;BME280;2057;50.858;6.572;2023-06-14T06:13:28;100283.44;;;18.97;63.30
4085;BME280;2057;50.858;6.572;2023-06-14T06:15:54;100273.19;;;19.00;63.32
4085;BME280;2057;50.858;6.572;2023-06-14T06:18:19;100279.44;;;19.25;62.37
4085;BME280;2057;50.858;6.572;2023-06-14T06:20:44;100283.91;;;19.45;63.03
4085;BME280;2057;50.858;6.572;2023-06-14T06:23:11;100281.47;;;19.60;62.41
4085;BME280;2057;50.858;6.572;2023-06-14T06:25:36;100282.34;;;19.61;61.94
4085;BME280;2057;50.858;6.572;2023-06-14T06:28:02;100284.94;;;19.63;60.08
4085;BME280;2057;50.858;6.572;2023-06-14T06:30:27;100286.66;;;19.64;60.11
4085;BME280;2057;50.858;6.572;2023-06-14T06:32:53;100292.56;;;19.52;60.09
4085;BME280;2057;50.858;6.572;2023-06-14T06:35:18;100298.59;;;19.55;56.79
4085;BME280;2057;50.858;6.572;2023-06-14T06:37:44;100296.03;;;19.54;55.84
4085;BME280;2057;50.858;6.572;2023-06-14T06:40:10;100310.75;;;19.72;54.20
4085;BME280;2057;50.858;6.572;2023-06-14T06:42:35;100300.47;;;19.70;54.30
4085;BME280;2057;50.858;6.572;2023-06-14T06:45:01;100308.22;;;19.77;54.88
4085;BME280;2057;50.858;6.572;2023-06-14T06:47:27;100306.59;;;19.86;55.18
4085;BME280;2057;50.858;6.572;2023-06-14T06:49:52;100310.13;;;19.99;53.88
4085;BME280;2057;50.858;6.572;2023-06-14T06:52:18;100313.69;;;20.17;53.80
4085;BME280;2057;50.858;6.572;2023-06-14T06:54:43;100321.56;;;20.32;53.12
4085;BME280;2057;50.858;6.572;2023-06-14T06:57:08;100319.84;;;20.36;52.46
4085;BME280;2057;50.858;6.572;2023-06-14T06:59:36;100317.25;;;20.33;51.20
4085;BME280;2057;50.858;6.572;2023-06-14T07:02:01;100323.22;;;20.26;52.52
4085;BME280;2057;50.858;6.572;2023-06-14T07:04:26;100320.75;;;20.46;51.65
4085;BME280;2057;50.858;6.572;2023-06-14T07:06:52;100322.47;;;20.44;51.19
4085;BME280;2057;50.858;6.572;2023-06-14T07:09:17;100327.66;;;20.45;51.80
4085;BME280;2057;50.858;6.572;2023-06-14T07:11:44;100326.84;;;20.60;52.44
4085;BME280;2057;50.858;6.572;2023-06-14T07:14:10;100322.66;;;20.78;51.58
4085;BME280;2057;50.858;6.572;2023-06-14T07:16:36;100322.66;;;20.78;51.14
4085;BME280;2057;50.858;6.572;2023-06-14T07:19:02;100322.72;;;20.89;51.33
4085;BME280;2057;50.858;6.572;2023-06-14T07:21:28;100330.47;;;20.90;51.07
4085;BME280;2057;50.858;6.572;2023-06-14T07:23:53;100336.47;;;20.89;50.46
4085;BME280;2057;50.858;6.572;2023-06-14T07:26:19;100331.31;;;20.84;50.72
4085;BME280;2057;50.858;6.572;2023-06-14T07:28:46;100334.75;;;20.88;50.27
4085;BME280;2057;50.858;6.572;2023-06-14T07:31:12;100335.66;;;20.98;52.14
4085;BME280;2057;50.858;6.572;2023-06-14T07:33:37;100334.81;;;21.08;50.61
4085;BME280;2057;50.858;6.572;2023-06-14T07:36:03;100337.44;;;21.21;50.48
4085;BME280;2057;50.858;6.572;2023-06-14T07:38:29;100341.75;;;21.23;49.97
4085;BME280;2057;50.858;6.572;2023-06-14T07:40:54;100329.75;;;21.35;50.20
4085;BME280;2057;50.858;6.572;2023-06-14T07:43:20;100337.47;;;21.27;50.62
4085;BME280;2057;50.858;6.572;2023-06-14T07:45:45;100328.00;;;21.40;49.43
4085;BME280;2057;50.858;6.572;2023-06-14T07:48:11;100334.91;;;21.41;50.25
4085;BME280;2057;50.858;6.572;2023-06-14T07:50:36;100338.38;;;21.43;49.54
4085;BME280;2057;50.858;6.572;2023-06-14T07:53:01;100332.34;;;21.52;49.95
4085;BME280;2057;50.858;6.572;2023-06-14T07:55:27;100340.06;;;21.47;50.13
4085;BME280;2057;50.858;6.572;2023-06-14T07:57:53;100341.88;;;21.82;50.14
4085;BME280;2057;50.858;6.572;2023-06-14T08:00:19;100337.56;;;21.87;49.82
4085;BME280;2057;50.858;6.572;2023-06-14T08:02:45;100331.53;;;21.91;49.93
4085;BME280;2057;50.858;6.572;2023-06-14T08:05:11;100329.78;;;22.00;49.22
4085;BME280;2057;50.858;6.572;2023-06-14T08:07:37;100329.81;;;22.03;49.13
4085;BME280;2057;50.858;6.572;2023-06-14T08:10:04;100328.06;;;21.94;49.44
4085;BME280;2057;50.858;6.572;2023-06-14T08:12:29;100337.56;;;22.12;48.09
4085;BME280;2057;50.858;6.572;2023-06-14T08:14:54;100329.78;;;22.00;48.79
4085;BME280;2057;50.858;6.572;2023-06-14T08:17:20;100334.09;;;22.07;48.43
4085;BME280;2057;50.858;6.572;2023-06-14T08:19:45;100340.16;;;22.03;47.86
4085;BME280;2057;50.858;6.572;2023-06-14T08:22:10;100339.25;;;22.30;47.37
4085;BME280;2057;50.858;6.572;2023-06-14T08:24:37;100347.84;;;22.38;47.15
4085;BME280;2057;50.858;6.572;2023-06-14T08:27:03;100337.56;;;22.40;46.69
4085;BME280;2057;50.858;6.572;2023-06-14T08:29:28;100338.38;;;22.45;46.89
4085;BME280;2057;50.858;6.572;2023-06-14T08:31:55;100336.66;;;22.47;47.71
4085;BME280;2057;50.858;6.572;2023-06-14T08:34:21;100333.22;;;22.34;46.93
4085;BME280;2057;50.858;6.572;2023-06-14T08:36:49;100336.66;;;22.49;47.41
4085;BME280;2057;50.858;6.572;2023-06-14T08:39:15;100330.59;;;22.62;46.43
4085;BME280;2057;50.858;6.572;2023-06-14T08:41:42;100334.78;;;22.86;46.26
4085;BME280;2057;50.858;6.572;2023-06-14T08:44:10;100336.47;;;22.97;46.32
4085;BME280;2057;50.858;6.572;2023-06-14T08:46:36;100337.41;;;22.88;45.03
4085;BME280;2057;50.858;6.572;2023-06-14T08:49:03;100335.66;;;22.84;45.88
4085;BME280;2057;50.858;6.572;2023-06-14T08:51:32;100322.66;;;22.98;45.65
4085;BME280;2057;50.858;6.572;2023-06-14T08:53:59;100332.94;;;23.16;45.79
4085;BME280;2057;50.858;6.572;2023-06-14T08:56:27;100322.63;;;23.10;45.25
4085;BME280;2057;50.858;6.572;2023-06-14T08:58:55;100332.09;;;23.13;44.89
4085;BME280;2057;50.858;6.572;2023-06-14T09:01:22;100328.66;;;23.09;44.17
4085;BME280;2057;50.858;6.572;2023-06-14T09:03:49;100319.94;;;23.27;44.01
4085;BME280;2057;50.858;6.572;2023-06-14T09:06:15;100321.66;;;23.30;43.89
4085;BME280;2057;50.858;6.572;2023-06-14T09:08:45;100318.09;;;23.42;44.26
4085;BME280;2057;50.858;6.572;2023-06-14T09:11:12;100325.00;;;23.43;44.39
4085;BME280;2057;50.858;6.572;2023-06-14T09:13:41;100324.13;;;23.45;44.38
4085;BME280;2057;50.858;6.572;2023-06-14T09:16:07;100325.69;;;23.73;44.46
4085;BME280;2057;50.858;6.572;2023-06-14T09:18:38;100314.47;;;23.68;43.30
4085;BME280;2057;50.858;6.572;2023-06-14T09:21:06;100320.50;;;23.70;43.59
4085;BME280;2057;50.858;6.572;2023-06-14T09:23:45;100322.97;;;23.87;41.41
4085;BME280;2057;50.858;6.572;2023-06-14T09:26:15;100317.69;;;24.01;40.89
4085;BME280;2057;50.858;6.572;2023-06-14T09:28:42;100316.63;;;24.19;40.80
4085;BME280;2057;50.858;6.572;2023-06-14T09:31:10;100323.56;;;24.20;40.67
4085;BME280;2057;50.858;6.572;2023-06-14T09:33:36;100321.63;;;24.37;39.02
4085;BME280;2057;50.858;6.572;2023-06-14T09:36:03;100331.13;;;24.40;38.74
4085;BME280;2057;50.858;6.572;2023-06-14T09:38:29;100325.97;;;24.38;38.06
4085;BME280;2057;50.858;6.572;2023-06-14T09:40:58;100329.41;;;24.39;38.91
4085;BME280;2057;50.858;6.572;2023-06-14T09:43:24;100325.09;;;24.39;37.85
4085;BME280;2057;50.858;6.572;2023-06-14T09:45:51;100322.34;;;24.53;37.86
4085;BME280;2057;50.858;6.572;2023-06-14T09:48:17;100326.56;;;24.59;37.60
4085;BME280;2057;50.858;6.572;2023-06-14T09:50:47;100326.63;;;24.56;38.56
4085;BME280;2057;50.858;6.572;2023-06-14T09:53:15;100322.22;;;24.61;38.14
4085;BME280;2057;50.858;6.572;2023-06-14T09:55:41;100323.97;;;24.59;36.36
4085;BME280;2057;50.858;6.572;2023-06-14T09:58:08;100317.84;;;24.66;37.08
4085;BME280;2057;50.858;6.572;2023-06-14T10:00:36;100317.66;;;24.83;36.99
4085;BME280;2057;50.858;6.572;2023-06-14T10:03:28;100310.78;;;24.81;36.68
4085;BME280;2057;50.858;6.572;2023-06-14T10:05:55;100306.50;;;24.75;37.28
4085;BME280;2057;50.858;6.572;2023-06-14T10:08:27;100310.53;;;24.99;36.86
4085;BME280;2057;50.858;6.572;2023-06-14T10:10:55;100311.22;;;25.12;36.97
4085;BME280;2057;50.858;6.572;2023-06-14T10:13:21;100307.00;;;25.03;35.91
4085;BME280;2057;50.858;6.572;2023-06-14T10:18:49;100298.97;;;25.20;36.99
4085;BME280;2057;50.858;6.572;2023-06-14T10:21:31;100299.94;;;25.15;37.45
4085;BME280;2057;50.858;6.572;2023-06-14T10:24:01;100303.16;;;25.31;36.85
4085;BME280;2057;50.858;6.572;2023-06-14T10:26:28;100304.84;;;25.32;37.17
4085;BME280;2057;50.858;6.572;2023-06-14T10:29:30;100302.16;;;25.41;36.88
4085;BME280;2057;50.858;6.572;2023-06-14T10:31:50;100302.06;;;25.46;38.06
4085;BME280;2057;50.858;6.572;2023-06-14T10:34:26;100303.31;;;25.20;37.16
4085;BME280;2057;50.858;6.572;2023-06-14T10:39:29;100299.91;;;25.73;36.24
4085;BME280;2057;50.858;6.572;2023-06-14T10:41:56;100305.91;;;25.21;35.81
4085;BME280;2057;50.858;6.572;2023-06-14T10:46:53;100307.94;;;25.60;36.44
4085;BME280;2057;50.858;6.572;2023-06-14T10:49:19;100303.75;;;25.50;35.96
4085;BME280;2057;50.858;6.572;2023-06-14T10:51:57;100304.47;;;25.61;35.83
4085;BME280;2057;50.858;6.572;2023-06-14T10:54:23;100299.28;;;25.58;35.70
4085;BME280;2057;50.858;6.572;2023-06-14T10:56:53;100303.25;;;25.81;37.27
4085;BME280;2057;50.858;6.572;2023-06-14T10:59:20;100307.56;;;25.82;36.67
4085;BME280;2057;50.858;6.572;2023-06-14T11:04:52;100306.09;;;25.65;37.82
4085;BME280;2057;50.858;6.572;2023-06-14T11:12:41;100292.88;;;25.79;38.55
4085;BME280;2057;50.858;6.572;2023-06-14T11:15:08;100296.94;;;25.94;38.09
4085;BME280;2057;50.858;6.572;2023-06-14T11:17:33;100296.97;;;25.93;37.53
4085;BME280;2057;50.858;6.572;2023-06-14T11:20:09;100286.63;;;25.88;37.83
4085;BME280;2057;50.858;6.572;2023-06-14T11:22:41;100296.00;;;25.98;37.21
4085;BME280;2057;50.858;6.572;2023-06-14T11:25:12;100290.91;;;25.92;38.11
4085;BME280;2057;50.858;6.572;2023-06-14T11:27:38;100298.25;;;26.19;37.77
4085;BME280;2057;50.858;6.572;2023-06-14T11:30:06;100298.88;;;26.33;36.83
4085;BME280;2057;50.858;6.572;2023-06-14T11:32:32;100307.06;;;26.13;37.05
4085;BME280;2057;50.858;6.572;2023-06-14T11:34:57;100301.03;;;26.08;37.11
4085;BME280;2057;50.858;6.572;2023-06-14T11:37:25;100296.53;;;26.19;37.86
4085;BME280;2057;50.858;6.572;2023-06-14T11:39:56;100293.63;;;26.35;38.48
4085;BME280;2057;50.858;6.572;2023-06-14T11:42:21;100289.13;;;26.43;38.01
4085;BME280;2057;50.858;6.572;2023-06-14T11:44:46;100289.72;;;26.56;37.09
4085;BME280;2057;50.858;6.572;2023-06-14T11:47:12;100292.34;;;26.56;37.45
4085;BME280;2057;50.858;6.572;2023-06-14T11:49:38;100296.69;;;26.55;37.44
4085;BME280;2057;50.858;6.572;2023-06-14T11:52:03;100293.25;;;26.53;37.57
4085;BME280;2057;50.858;6.572;2023-06-14T11:54:29;100299.22;;;26.58;37.42
4085;BME280;2057;50.858;6.572;2023-06-14T11:56:54;100298.03;;;26.73;37.13
4085;BME280;2057;50.858;6.572;2023-06-14T11:59:20;100297.72;;;26.48;36.41
4085;BME280;2057;50.858;6.572;2023-06-14T12:01:47;100297.59;;;26.54;37.60
4085;BME280;2057;50.858;6.572;2023-06-14T12:04:12;100299.41;;;26.49;37.01
4085;BME280;2057;50.858;6.572;2023-06-14T12:06:38;100301.19;;;26.47;37.08
4085;BME280;2057;50.858;6.572;2023-06-14T12:09:07;100300.88;;;26.62;36.85
4085;BME280;2057;50.858;6.572;2023-06-14T12:11:38;100291.63;;;26.00;37.53
4085;BME280;2057;50.858;6.572;2023-06-14T12:14:04;100299.47;;;26.46;38.38
4085;BME280;2057;50.858;6.572;2023-06-14T12:16:35;100293.66;;;26.31;37.40
4085;BME280;2057;50.858;6.572;2023-06-14T12:19:16;100289.81;;;26.51;37.24
4085;BME280;2057;50.858;6.572;2023-06-14T12:21:45;100286.28;;;26.55;38.87
4085;BME280;2057;50.858;6.572;2023-06-14T12:24:13;100273.50;;;27.24;38.47
4085;BME280;2057;50.858;6.572;2023-06-14T12:26:39;100295.81;;;26.97;38.07
4085;BME280;2057;50.858;6.572;2023-06-14T12:29:06;100292.31;;;27.00;37.65
4085;BME280;2057;50.858;6.572;2023-06-14T12:31:32;100290.72;;;26.50;38.09
4085;BME280;2057;50.858;6.572;2023-06-14T12:33:57;100292.53;;;26.89;40.03
4085;BME280;2057;50.858;6.572;2023-06-14T12:36:23;100296.28;;;27.15;38.75
4085;BME280;2057;50.858;6.572;2023-06-14T12:38:48;100288.63;;;27.48;37.84
4085;BME280;2057;50.858;6.572;2023-06-14T12:41:14;100288.69;;;27.45;36.90
4085;BME280;2057;50.858;6.572;2023-06-14T12:43:40;100283.09;;;27.60;37.60
4085;BME280;2057;50.858;6.572;2023-06-14T12:46:05;100290.03;;;27.61;37.47
4085;BME280;2057;50.858;6.572;2023-06-14T12:48:31;100280.47;;;27.95;37.91
4085;BME280;2057;50.858;6.572;2023-06-14T12:50:57;100287.47;;;27.20;38.98
4085;BME280;2057;50.858;6.572;2023-06-14T12:53:23;100277.81;;;27.62;37.98
4085;BME280;2057;50.858;6.572;2023-06-14T12:55:49;100279.13;;;27.80;37.51
4085;BME280;2057;50.858;6.572;2023-06-14T12:58:14;100277.88;;;27.60;37.30
4085;BME280;2057;50.858;6.572;2023-06-14T13:00:42;100272.91;;;27.84;37.35
4085;BME280;2057;50.858;6.572;2023-06-14T13:03:07;100266.50;;;27.63;37.63
4085;BME280;2057;50.858;6.572;2023-06-14T13:05:33;100273.59;;;27.91;37.47
4085;BME280;2057;50.858;6.572;2023-06-14T13:07:59;100269.03;;;28.32;38.32
4085;BME280;2057;50.858;6.572;2023-06-14T13:10:25;100266.22;;;28.40;36.17
4085;BME280;2057;50.858;6.572;2023-06-14T13:12:50;100273.72;;;28.51;36.74
4085;BME280;2057;50.858;6.572;2023-06-14T13:15:16;100267.94;;;28.71;35.27
4085;BME280;2057;50.858;6.572;2023-06-14T13:17:41;100268.84;;;28.68;35.80
4085;BME280;2057;50.858;6.572;2023-06-14T13:20:09;100270.66;;;28.96;35.47
4085;BME280;2057;50.858;6.572;2023-06-14T13:22:35;100272.88;;;28.50;35.75
4085;BME280;2057;50.858;6.572;2023-06-14T13:25:01;100267.59;;;28.22;36.63
4085;BME280;2057;50.858;6.572;2023-06-14T13:27:27;100271.47;;;28.05;36.38
4085;BME280;2057;50.858;6.572;2023-06-14T13:29:53;100278.56;;;27.67;36.35